Terminal Aerodrome Forecast
Issued by NWS

Current Version | Previous Version | Text Only | Print | Product List | Glossary On
Versions: 1 2 3 4 5 6 7 8 9 10 11 12 13 14 15 16 17 18 19 20 21 22
000
FTPA31 PHFO 200500
TAFJRF
TAF
PHJR 200520Z 2006/2106 05005KT P6SM SCT035 BKN200
     FM201900 07008G15KT P6SM VCSH FEW030 SCT045 BKN250
     FM210400 06005KT P6SM FEW030 SCT045 BKN250=

USA.gov is the U.S. government's official web portal to all federal, state and local government web resources and services.